Time;durP1;ratioP1;P1;durP2;ratioP2;P2;SDS_P1;SDS_P2;PMS_P1;PMS_P2;Temp;Humidity;BMP_temperature;BMP_pressure;BME280_temperature;BME280_humidity;BME280_pressure;Samples;Min_cycle;Max_cycle;Signal;HPM_P1;HPM_P2
2023/04/21 00:02:03;;;;;;;;;;;;;;;13.38;71.66;99272.09;4970179;28;20552;-92
2023/04/21 00:04:28;;;;;;;;;;;;;;;13.32;71.94;99274.94;4967122;28;19918;-92
2023/04/21 00:06:54;;;;;;;;;;;;;;;13.26;72.12;99272.47;4962049;28;19929;-90
2023/04/21 00:09:22;;;;;;;;;;;;;;;13.28;72.22;99275.06;4987418;28;19917;-92
2023/04/21 00:11:47;;;;;;;;;;;;;;;13.32;71.96;99274.06;4984340;28;19920;-93
2023/04/21 00:14:13;;;;;;;;;;;;;;;13.17;72.57;99263.03;4973415;28;20371;-92
2023/04/21 00:16:38;;;;;;;;;;;;;;;13.21;72.17;99271.78;4973946;28;19913;-93
2023/04/21 00:19:05;;;;;;;;;;;;;;;13.24;72.03;99274.31;4991676;28;19921;-92
2023/04/21 00:21:31;;;;;;;;;;;;;;;13.31;70.98;99273.19;4974103;28;20129;-92
2023/04/21 00:23:57;;;;;;;;;;;;;;;13.01;71.41;99265.31;4974155;28;20031;-92
2023/04/21 00:26:22;;;;;;;;;;;;;;;12.64;72.59;99269.09;4991384;28;19924;-92
2023/04/21 00:28:47;;;;;;;;;;;;;;;12.68;73.32;99261.94;4990953;28;19917;-92
2023/04/21 00:31:13;;;;;;;;;;;;;;;12.70;73.50;99263.63;4991733;28;20371;-92
2023/04/21 00:33:38;;;;;;;;;;;;;;;12.84;73.51;99265.00;4990692;28;20376;-93
2023/04/21 00:36:03;;;;;;;;;;;;;;;12.75;73.24;99262.63;4991499;28;20012;-93
2023/04/21 00:38:29;;;;;;;;;;;;;;;12.71;73.44;99256.53;4991495;28;20297;-93
2023/04/21 00:40:54;;;;;;;;;;;;;;;12.74;73.80;99255.59;4990411;28;19989;-92
2023/04/21 00:43:19;;;;;;;;;;;;;;;12.56;74.67;99262.31;4971843;28;19917;-93
2023/04/21 00:45:45;;;;;;;;;;;;;;;12.62;74.87;99256.81;4973503;28;20336;-93
2023/04/21 00:48:11;;;;;;;;;;;;;;;12.60;74.31;99259.53;4969896;28;19921;-92
2023/04/21 00:50:36;;;;;;;;;;;;;;;12.60;74.34;99254.22;4970532;28;19921;-90
2023/04/21 00:53:02;;;;;;;;;;;;;;;12.61;74.79;99252.47;4990191;28;20390;-90
2023/04/21 00:55:28;;;;;;;;;;;;;;;12.58;75.67;99256.06;4990985;28;20440;-89
2023/04/21 00:57:54;;;;;;;;;;;;;;;12.65;75.37;99256.72;4969991;28;20348;-91
2023/04/21 01:00:19;;;;;;;;;;;;;;;12.71;75.74;99254.78;4968450;28;19913;-91
2023/04/21 01:02:45;;;;;;;;;;;;;;;12.36;80.08;99251.41;4988535;28;20401;-90
2023/04/21 01:05:10;;;;;;;;;;;;;;;12.18;82.62;99249.31;4990682;28;19913;-91
2023/04/21 01:07:36;;;;;;;;;;;;;;;12.19;82.84;99243.13;4991199;28;19917;-91
2023/04/21 01:10:02;;;;;;;;;;;;;;;12.39;82.21;99236.34;4990257;28;20306;-91
2023/04/21 01:12:28;;;;;;;;;;;;;;;12.45;82.72;99238.81;4969069;28;20008;-90
2023/04/21 01:14:53;;;;;;;;;;;;;;;12.48;83.06;99238.72;4991244;28;20440;-91
2023/04/21 01:17:18;;;;;;;;;;;;;;;12.22;84.32;99250.97;4990554;28;19983;-90
2023/04/21 01:19:44;;;;;;;;;;;;;;;12.22;84.74;99242.13;4990634;28;19920;-89
2023/04/21 01:22:10;;;;;;;;;;;;;;;12.26;85.00;99238.50;4983409;28;19917;-90
2023/04/21 01:24:40;;;;;;;;;;;;;;;12.27;84.58;99241.09;5005387;28;19968;-90
2023/04/21 01:27:14;;;;;;;;;;;;;;;12.29;84.03;99236.63;4990547;28;19913;-91
2023/04/21 01:29:40;;;;;;;;;;;;;;;12.23;84.29;99243.88;4990308;28;20387;-90
2023/04/21 01:32:08;;;;;;;;;;;;;;;12.36;83.92;99242.63;4988984;28;19995;-91
2023/04/21 01:34:33;;;;;;;;;;;;;;;12.49;83.14;99240.47;5005580;28;19913;-90
2023/04/21 01:36:59;;;;;;;;;;;;;;;12.52;81.88;99250.97;4990232;28;19933;-91
2023/04/21 01:39:24;;;;;;;;;;;;;;;12.50;81.74;99248.34;5005869;28;19914;-91
2023/04/21 01:41:50;;;;;;;;;;;;;;;12.48;80.98;99244.91;4994020;28;19918;-90
2023/04/21 01:44:15;;;;;;;;;;;;;;;12.39;81.34;99241.66;4992475;28;19984;-91
2023/04/21 01:46:41;;;;;;;;;;;;;;;12.36;81.19;99240.84;4993744;28;19922;-91
2023/04/21 01:49:06;;;;;;;;;;;;;;;12.32;80.80;99244.47;4994035;28;19929;-91
2023/04/21 01:51:32;;;;;;;;;;;;;;;12.33;80.03;99240.94;4994310;28;19971;-90
2023/04/21 01:53:57;;;;;;;;;;;;;;;12.16;80.35;99244.06;4992559;28;20323;-90
2023/04/21 01:56:22;;;;;;;;;;;;;;;12.22;79.80;99242.13;4993821;28;20008;-91
2023/04/21 01:58:48;;;;;;;;;;;;;;;12.09;79.84;99250.41;4993780;28;19918;-90
2023/04/21 02:01:13;;;;;;;;;;;;;;;11.57;80.11;99252.69;4993996;28;20403;-90
2023/04/21 02:03:39;;;;;;;;;;;;;;;11.61;81.25;99269.31;4991652;28;19926;-90
2023/04/21 02:06:04;;;;;;;;;;;;;;;11.65;81.09;99268.34;4993340;28;20327;-89
2023/04/21 02:08:30;;;;;;;;;;;;;;;11.51;81.82;99275.72;4990254;28;19957;-91
2023/04/21 02:10:55;;;;;;;;;;;;;;;11.47;82.04;99274.94;4993025;28;19917;-89
2023/04/21 02:13:20;;;;;;;;;;;;;;;11.69;81.72;99271.75;4993311;28;19924;-90
2023/04/21 02:15:46;;;;;;;;;;;;;;;11.81;80.85;99266.16;4993058;28;19922;-89
2023/04/21 02:18:13;;;;;;;;;;;;;;;11.85;79.78;99262.53;4992986;28;20014;-89
2023/04/21 02:20:39;;;;;;;;;;;;;;;11.79;80.13;99267.97;4991157;28;19925;-90
2023/04/21 02:23:04;;;;;;;;;;;;;;;11.75;79.42;99269.81;4993330;28;19913;-89
2023/04/21 02:25:30;;;;;;;;;;;;;;;11.56;80.34;99264.16;4993761;28;19924;-89
2023/04/21 02:27:55;;;;;;;;;;;;;;;11.59;80.29;99269.34;4992592;28;20067;-91
2023/04/21 02:30:20;;;;;;;;;;;;;;;11.81;80.17;99263.50;4991234;28;19925;-91
2023/04/21 02:32:45;;;;;;;;;;;;;;;11.71;79.88;99257.59;4991701;28;19913;-91
2023/04/21 02:35:11;;;;;;;;;;;;;;;11.84;79.15;99258.13;4967961;28;19921;-91
2023/04/21 02:37:36;;;;;;;;;;;;;;;11.81;79.58;99248.50;4992122;28;19975;-91
2023/04/21 02:40:02;;;;;;;;;;;;;;;11.78;79.10;99261.81;4992053;28;19910;-92
2023/04/21 02:42:27;;;;;;;;;;;;;;;11.76;78.90;99254.84;4974022;28;19914;-92
2023/04/21 02:44:52;;;;;;;;;;;;;;;11.79;78.35;99260.91;4974361;28;19929;-93
2023/04/21 02:47:19;;;;;;;;;;;;;;;11.64;79.03;99258.66;5007989;28;19910;-93
2023/04/21 02:49:44;;;;;;;;;;;;;;;11.52;78.21;99261.63;4992990;28;20016;-91
2023/04/21 02:52:10;;;;;;;;;;;;;;;11.43;76.61;99252.16;4991287;28;20008;-92
2023/04/21 02:54:35;;;;;;;;;;;;;;;11.11;78.01;99254.69;4989749;28;19944;-91
2023/04/21 02:57:00;;;;;;;;;;;;;;;11.05;77.89;99249.56;4993188;28;20378;-91
2023/04/21 02:59:26;;;;;;;;;;;;;;;10.88;78.24;99259.66;4992983;28;19914;-91
2023/04/21 03:01:51;;;;;;;;;;;;;;;10.54;79.71;99260.44;4974336;28;19913;-93
2023/04/21 03:04:18;;;;;;;;;;;;;;;10.21;80.71;99255.81;4990062;28;19913;-91
2023/04/21 03:06:43;;;;;;;;;;;;;;;10.31;80.29;99256.47;4991291;28;19960;-92
2023/04/21 03:09:09;;;;;;;;;;;;;;;9.93;81.26;99251.97;4992590;28;19987;-91
2023/04/21 03:11:34;;;;;;;;;;;;;;;9.95;82.13;99253.69;4992767;28;20342;-91
2023/04/21 03:14:00;;;;;;;;;;;;;;;9.91;82.97;99256.41;4992467;28;19921;-86
2023/04/21 03:16:26;;;;;;;;;;;;;;;10.16;82.43;99257.66;4990973;28;19979;-90
2023/04/21 03:18:52;;;;;;;;;;;;;;;10.19;82.33;99256.72;4992216;28;19948;-90
2023/04/21 03:21:17;;;;;;;;;;;;;;;10.08;82.99;99262.22;5007645;28;19947;-90
2023/04/21 03:23:43;;;;;;;;;;;;;;;10.02;83.05;99265.84;4992577;28;19972;-89
2023/04/21 03:26:08;;;;;;;;;;;;;;;10.09;83.80;99263.94;4984738;28;20016;-90
2023/04/21 03:28:34;;;;;;;;;;;;;;;10.17;83.37;99263.81;4992192;28;20340;-89
2023/04/21 03:30:59;;;;;;;;;;;;;;;10.15;82.78;99261.19;4992451;28;19914;-90
2023/04/21 03:33:24;;;;;;;;;;;;;;;10.11;82.82;99272.69;4991831;28;20483;-91
2023/04/21 03:35:50;;;;;;;;;;;;;;;10.15;83.58;99265.59;4988640;28;19969;-92
2023/04/21 03:38:15;;;;;;;;;;;;;;;10.12;84.01;99279.72;4985194;28;19926;-92
2023/04/21 03:40:41;;;;;;;;;;;;;;;10.28;83.76;99276.75;4990882;28;19980;-92
2023/04/21 03:43:06;;;;;;;;;;;;;;;10.49;83.69;99278.13;4974035;28;19928;-91
2023/04/21 03:45:33;;;;;;;;;;;;;;;10.84;82.90;99284.38;4973597;28;20344;-92
2023/04/21 03:47:58;;;;;;;;;;;;;;;10.81;82.15;99287.94;4973585;28;20396;-91
2023/04/21 03:50:24;;;;;;;;;;;;;;;10.75;82.11;99290.72;4991271;28;19976;-88
2023/04/21 03:52:49;;;;;;;;;;;;;;;10.53;82.53;99291.22;4990340;28;20307;-90
2023/04/21 03:55:14;;;;;;;;;;;;;;;10.54;82.33;99292.94;4991429;28;19921;-90
2023/04/21 03:57:40;;;;;;;;;;;;;;;10.84;81.90;99300.22;4990566;28;19914;-89
2023/04/21 04:00:08;;;;;;;;;;;;;;;10.96;80.54;99293.78;4991661;28;19909;-91
2023/04/21 04:02:33;;;;;;;;;;;;;;;11.05;79.55;99299.72;4990757;28;19965;-91
2023/04/21 04:04:58;;;;;;;;;;;;;;;11.11;79.98;99294.28;4991628;28;20027;-89
2023/04/21 04:07:25;;;;;;;;;;;;;;;11.17;79.40;99288.00;4991753;28;19914;-92
2023/04/21 04:09:50;;;;;;;;;;;;;;;11.13;79.27;99296.03;4983327;28;19917;-91
2023/04/21 04:12:15;;;;;;;;;;;;;;;11.15;78.68;99289.81;4987415;28;19922;-91
2023/04/21 04:14:40;;;;;;;;;;;;;;;10.88;78.70;99286.91;4979588;28;20012;-90
2023/04/21 04:17:06;;;;;;;;;;;;;;;10.81;79.77;99295.84;4985743;28;19924;-93
2023/04/21 04:19:31;;;;;;;;;;;;;;;10.78;80.65;99301.19;4962882;28;19939;-91
2023/04/21 04:22:00;;;;;;;;;;;;;;;10.77;81.55;99295.97;4967602;28;19921;-95
2023/04/21 04:24:25;;;;;;;;;;;;;;;10.88;81.12;99294.84;4987025;28;19968;-95
2023/04/21 04:26:52;;;;;;;;;;;;;;;10.82;81.18;99291.47;4975004;28;19913;-90
2023/04/21 04:29:18;;;;;;;;;;;;;;;10.83;81.69;99296.72;4978517;28;20008;-93
2023/04/21 04:31:44;;;;;;;;;;;;;;;10.86;82.08;99294.00;4983417;28;20331;-95
2023/04/21 04:34:10;;;;;;;;;;;;;;;10.78;83.22;99297.72;4970620;28;19929;-94
2023/04/21 04:36:35;;;;;;;;;;;;;;;10.88;84.00;99297.47;4959957;28;20368;-94
2023/04/21 04:39:01;;;;;;;;;;;;;;;10.98;83.83;99298.13;4973664;28;19910;-95
2023/04/21 04:41:29;;;;;;;;;;;;;;;11.23;83.21;99313.38;4956038;28;19914;-94
2023/04/21 04:43:58;;;;;;;;;;;;;;;11.47;82.98;99304.00;4988834;28;19917;-95
2023/04/21 04:46:24;;;;;;;;;;;;;;;11.63;82.31;99313.28;4950487;28;19914;-94
2023/04/21 04:48:50;;;;;;;;;;;;;;;11.77;82.08;99306.75;4978488;28;19925;-94
2023/04/21 04:51:15;;;;;;;;;;;;;;;11.96;81.34;99312.50;4973711;28;19918;-93
2023/04/21 04:53:41;;;;;;;;;;;;;;;11.99;81.04;99307.97;4992200;28;19967;-94
2023/04/21 04:56:06;;;;;;;;;;;;;;;12.09;81.07;99303.28;4991351;28;19913;-95
2023/04/21 04:58:32;;;;;;;;;;;;;;;12.08;80.99;99288.38;4974538;28;20063;-96
2023/04/21 05:00:58;;;;;;;;;;;;;;;12.44;80.11;99316.47;4977889;28;19922;-88
2023/04/21 05:03:23;;;;;;;;;;;;;;;12.44;79.80;99306.75;4985753;28;19917;-91
2023/04/21 05:05:48;;;;;;;;;;;;;;;12.43;79.80;99322.66;4990502;28;19914;-89
2023/04/21 05:08:14;;;;;;;;;;;;;;;12.51;79.16;99305.66;4988163;28;19941;-90
2023/04/21 05:10:39;;;;;;;;;;;;;;;12.52;79.66;99312.66;4981904;28;20402;-89
2023/04/21 05:13:05;;;;;;;;;;;;;;;12.44;80.74;99306.75;4978499;28;19925;-91
2023/04/21 05:15:30;;;;;;;;;;;;;;;12.20;82.21;99313.56;4991745;28;19913;-89
2023/04/21 05:17:56;;;;;;;;;;;;;;;12.12;82.59;99316.44;4993572;28;19921;-90
2023/04/21 05:20:21;;;;;;;;;;;;;;;12.64;81.60;99307.94;4995240;28;19914;-89
2023/04/21 05:22:47;;;;;;;;;;;;;;;12.56;80.23;99309.94;4994591;28;20304;-89
2023/04/21 05:25:14;;;;;;;;;;;;;;;12.54;80.72;99308.22;4994743;28;20371;-89
2023/04/21 05:27:40;;;;;;;;;;;;;;;12.58;79.54;99301.03;4989647;28;19964;-88
2023/04/21 05:30:05;;;;;;;;;;;;;;;13.02;79.52;99301.50;4986908;28;19913;-89
2023/04/21 05:32:31;;;;;;;;;;;;;;;13.18;78.03;99295.72;4994008;28;19921;-89
2023/04/21 05:34:56;;;;;;;;;;;;;;;13.46;77.00;99300.13;4994348;28;19924;-89
2023/04/21 05:37:21;;;;;;;;;;;;;;;13.82;74.60;99299.81;4994708;28;19918;-88
2023/04/21 05:39:46;;;;;;;;;;;;;;;13.90;74.08;99298.63;4993824;28;19953;-88
2023/04/21 05:42:12;;;;;;;;;;;;;;;13.96;72.79;99298.41;4994194;28;19985;-88
2023/04/21 05:44:37;;;;;;;;;;;;;;;14.23;71.62;99302.78;4994483;28;19914;-89
2023/04/21 05:47:03;;;;;;;;;;;;;;;14.48;69.93;99287.69;4989247;28;20004;-89
2023/04/21 05:49:29;;;;;;;;;;;;;;;14.54;69.68;99299.00;4981600;28;19920;-90
2023/04/21 05:51:54;;;;;;;;;;;;;;;14.83;69.72;99285.50;4976241;28;19918;-91
2023/04/21 05:54:19;;;;;;;;;;;;;;;15.22;66.99;99294.59;4976197;28;20020;-89
2023/04/21 05:56:46;;;;;;;;;;;;;;;15.59;66.43;99290.44;4994127;28;19914;-89
2023/04/21 05:59:11;;;;;;;;;;;;;;;15.44;62.46;99285.75;4993723;28;19953;-89
2023/04/21 06:01:36;;;;;;;;;;;;;;;15.81;62.07;99289.56;4993663;28;20481;-89
2023/04/21 06:04:02;;;;;;;;;;;;;;;15.90;60.63;99287.34;4993853;28;20321;-89
2023/04/21 06:06:27;;;;;;;;;;;;;;;16.19;60.82;99287.88;4993782;28;20378;-90
2023/04/21 06:08:52;;;;;;;;;;;;;;;16.46;57.81;99287.56;4993598;28;19959;-91
2023/04/21 06:11:18;;;;;;;;;;;;;;;16.60;55.59;99286.94;4993913;28;20012;-91
2023/04/21 06:13:43;;;;;;;;;;;;;;;16.42;54.53;99286.84;4976395;28;19910;-91
2023/04/21 06:16:08;;;;;;;;;;;;;;;16.68;54.55;99282.09;4993734;28;19913;-90
2023/04/21 06:18:34;;;;;;;;;;;;;;;16.78;51.97;99293.19;4993680;28;19929;-90
2023/04/21 06:20:59;;;;;;;;;;;;;;;16.97;51.57;99290.56;4975774;28;19914;-91
2023/04/21 06:23:25;;;;;;;;;;;;;;;17.28;52.23;99271.25;4993680;28;19948;-87
2023/04/21 06:26:04;;;;;;;;;;;;;;;16.90;50.75;99276.69;4993027;28;20330;-93
2023/04/21 06:28:30;;;;;;;;;;;;;;;16.93;51.72;99267.66;4991887;28;19914;-91
2023/04/21 06:30:55;;;;;;;;;;;;;;;17.33;49.89;99271.03;4992865;28;19914;-91
2023/04/21 06:33:20;;;;;;;;;;;;;;;17.43;50.35;99274.97;4988369;28;20288;-91
2023/04/21 06:35:46;;;;;;;;;;;;;;;17.24;50.66;99274.16;4982333;28;19914;-91
2023/04/21 06:38:11;;;;;;;;;;;;;;;17.00;50.07;99271.75;4992872;28;19968;-90
2023/04/21 06:40:36;;;;;;;;;;;;;;;17.09;51.66;99273.97;4992333;28;19914;-90
2023/04/21 06:43:02;;;;;;;;;;;;;;;17.45;50.49;99261.56;4992842;28;19913;-89
2023/04/21 06:45:27;;;;;;;;;;;;;;;17.37;49.67;99259.28;4992898;28;19972;-90
2023/04/21 06:47:52;;;;;;;;;;;;;;;17.65;48.89;99258.75;4992027;28;19913;-89
2023/04/21 06:50:17;;;;;;;;;;;;;;;17.58;47.42;99262.69;4992080;28;19913;-91
2023/04/21 06:52:43;;;;;;;;;;;;;;;17.88;47.41;99256.72;4991858;28;19957;-90
2023/04/21 06:55:08;;;;;;;;;;;;;;;18.34;47.11;99256.97;4992525;28;20008;-91
2023/04/21 06:57:33;;;;;;;;;;;;;;;18.15;47.35;99257.13;4992091;28;20013;-91
2023/04/21 06:59:59;;;;;;;;;;;;;;;18.08;47.43;99258.38;4992065;28;19972;-92
2023/04/21 07:02:24;;;;;;;;;;;;;;;18.21;46.41;99267.47;4987779;28;19968;-89
2023/04/21 07:04:50;;;;;;;;;;;;;;;18.17;46.22;99265.88;4971750;28;19925;-87
2023/04/21 07:07:15;;;;;;;;;;;;;;;18.04;46.90;99270.13;4974646;28;19979;-88
2023/04/21 07:09:40;;;;;;;;;;;;;;;18.15;46.71;99267.78;4959783;28;19921;-86
2023/04/21 07:12:06;;;;;;;;;;;;;;;18.19;46.16;99273.81;4976437;28;19918;-88
2023/04/21 07:14:31;;;;;;;;;;;;;;;18.25;45.83;99274.34;4976406;28;19932;-88
2023/04/21 07:16:56;;;;;;;;;;;;;;;18.26;45.34;99272.56;4973740;28;19914;-87
2023/04/21 07:19:22;;;;;;;;;;;;;;;18.88;46.16;99269.22;4978410;28;19921;-88
2023/04/21 07:21:47;;;;;;;;;;;;;;;19.01;45.33;99272.91;4975573;28;19949;-85
2023/04/21 07:24:12;;;;;;;;;;;;;;;18.58;44.17;99265.47;4974284;28;19910;-84
2023/04/21 07:26:38;;;;;;;;;;;;;;;18.59;44.61;99266.31;4956024;28;20414;-89
2023/04/21 07:29:03;;;;;;;;;;;;;;;18.55;45.45;99265.63;4973682;28;20020;-88
2023/04/21 07:31:28;;;;;;;;;;;;;;;18.66;46.76;99264.16;4972660;28;20384;-87
2023/04/21 07:33:54;;;;;;;;;;;;;;;18.86;46.52;99260.41;4974210;28;19918;-88
2023/04/21 07:36:19;;;;;;;;;;;;;;;18.91;44.79;99261.03;4992072;28;19913;-86
2023/04/21 07:38:44;;;;;;;;;;;;;;;18.62;46.45;99260.81;4991758;28;19924;-88
2023/04/21 07:41:13;;;;;;;;;;;;;;;19.02;45.39;99258.63;4987365;28;19914;-88
2023/04/21 07:43:55;;;;;;;;;;;;;;;18.98;45.66;99257.06;4932125;29;19937;-87
2023/04/21 07:46:28;;;;;;;;;;;;;;;18.94;44.61;99255.53;4932032;29;19915;-88
2023/04/21 07:48:54;;;;;;;;;;;;;;;19.32;45.84;99250.66;4932085;29;19919;-87
2023/04/21 07:51:19;;;;;;;;;;;;;;;19.48;44.86;99255.09;4932114;29;19963;-87
2023/04/21 07:53:45;;;;;;;;;;;;;;;19.19;43.09;99262.16;4931952;29;19915;-88
2023/04/21 07:56:11;;;;;;;;;;;;;;;19.30;43.82;99262.38;4931880;29;19949;-87
2023/04/21 07:58:37;;;;;;;;;;;;;;;19.40;46.66;99260.91;4931926;29;19946;-87
2023/04/21 08:01:02;;;;;;;;;;;;;;;20.00;44.67;99251.13;4932050;29;19972;-86
2023/04/21 08:03:27;;;;;;;;;;;;;;;20.10;45.70;99262.16;4931463;29;20508;-88
2023/04/21 08:05:53;;;;;;;;;;;;;;;20.09;42.86;99266.63;4931809;29;19943;-86
2023/04/21 08:08:20;;;;;;;;;;;;;;;19.81;43.52;99251.41;4931261;29;19914;-87
2023/04/21 08:10:46;;;;;;;;;;;;;;;19.85;43.16;99248.44;4932085;29;20014;-87
2023/04/21 08:13:11;;;;;;;;;;;;;;;19.67;43.00;99254.88;4931421;29;20005;-87
2023/04/21 08:15:36;;;;;;;;;;;;;;;19.97;45.37;99252.22;4978713;28;20442;-87
2023/04/21 08:18:02;;;;;;;;;;;;;;;19.67;41.22;99250.38;4991719;28;19917;-88
2023/04/21 08:20:27;;;;;;;;;;;;;;;20.01;44.22;99244.84;4991756;28;19913;-89
2023/04/21 08:22:52;;;;;;;;;;;;;;;20.57;45.12;99244.94;4990798;28;19921;-89
2023/04/21 08:25:18;;;;;;;;;;;;;;;20.53;43.38;99246.09;4991033;28;19917;-88
2023/04/21 08:27:43;;;;;;;;;;;;;;;20.42;41.59;99240.53;4991022;28;20310;-87
2023/04/21 08:30:09;;;;;;;;;;;;;;;20.18;41.50;99250.00;4990527;28;19936;-87
2023/04/21 08:32:34;;;;;;;;;;;;;;;20.43;43.70;99242.28;4990243;28;20438;-87
2023/04/21 08:34:59;;;;;;;;;;;;;;;20.87;40.78;99244.81;4990367;28;20299;-88
2023/04/21 08:37:25;;;;;;;;;;;;;;;20.33;40.79;99245.53;4990328;28;20398;-88
2023/04/21 08:39:50;;;;;;;;;;;;;;;20.46;41.44;99237.56;4990323;28;19929;-88
2023/04/21 08:42:16;;;;;;;;;;;;;;;20.19;39.60;99246.38;4990591;28;19917;-86
2023/04/21 08:44:42;;;;;;;;;;;;;;;20.38;41.55;99240.72;4990706;28;19914;-87
2023/04/21 08:47:11;;;;;;;;;;;;;;;20.88;43.26;99232.28;4990529;28;19916;-87
2023/04/21 08:49:37;;;;;;;;;;;;;;;20.93;40.35;99230.16;4991940;28;19988;-89
2023/04/21 08:52:02;;;;;;;;;;;;;;;20.90;40.68;99235.72;4994438;28;20379;-88
2023/04/21 08:54:27;;;;;;;;;;;;;;;20.98;40.28;99228.03;4994477;28;19913;-87
2023/04/21 08:56:53;;;;;;;;;;;;;;;20.77;38.09;99234.78;4993501;28;19918;-86
2023/04/21 08:59:18;;;;;;;;;;;;;;;20.77;40.43;99227.59;4992110;28;19913;-87
2023/04/21 09:02:02;;;;;;;;;;;;;;;20.77;39.58;99226.75;4994016;28;19980;-86
2023/04/21 09:04:29;;;;;;;;;;;;;;;20.84;40.62;99223.59;4994142;28;19914;-90
2023/04/21 09:06:54;;;;;;;;;;;;;;;21.42;41.87;99224.22;4994506;28;19921;-90
2023/04/21 09:09:20;;;;;;;;;;;;;;;21.37;39.84;99220.13;4978734;28;19914;-91
2023/04/21 09:11:53;;;;;;;;;;;;;;;21.38;38.99;99217.34;4974744;28;19914;-89
2023/04/21 09:14:19;;;;;;;;;;;;;;;21.83;40.06;99211.66;4973850;28;19914;-90
2023/04/21 09:16:44;;;;;;;;;;;;;;;21.35;38.54;99211.31;4989357;28;20295;-86
2023/04/21 09:19:15;;;;;;;;;;;;;;;21.19;38.54;99204.28;4987552;28;19927;-87
2023/04/21 09:21:43;;;;;;;;;;;;;;;21.18;38.65;99205.28;4993522;28;19922;-88
2023/04/21 09:24:08;;;;;;;;;;;;;;;20.89;37.99;99197.31;4991016;28;19917;-85
2023/04/21 09:26:33;;;;;;;;;;;;;;;21.08;40.32;99196.97;4975899;28;19926;-89
2023/04/21 09:28:59;;;;;;;;;;;;;;;20.92;37.37;99185.56;4991488;28;19935;-86
2023/04/21 09:31:24;;;;;;;;;;;;;;;21.14;39.50;99190.34;4984807;28;19940;-86
2023/04/21 09:33:50;;;;;;;;;;;;;;;21.20;38.67;99191.75;4978396;28;20031;-86
2023/04/21 09:36:23;;;;;;;;;;;;;;;21.38;39.30;99185.16;4991813;28;19918;-88
2023/04/21 09:38:49;;;;;;;;;;;;;;;21.47;40.65;99180.97;4974818;28;19918;-88
2023/04/21 09:41:16;;;;;;;;;;;;;;;21.37;36.36;99178.06;4978553;28;19964;-87
2023/04/21 09:43:42;;;;;;;;;;;;;;;20.81;36.67;99185.41;4979229;28;20398;-85
2023/04/21 09:46:08;;;;;;;;;;;;;;;21.24;38.37;99175.34;4993770;28;19914;-87
2023/04/21 09:48:34;;;;;;;;;;;;;;;21.12;36.98;99173.50;4981812;28;19925;-87
2023/04/21 09:51:00;;;;;;;;;;;;;;;21.37;42.06;99172.69;4965851;28;19921;-87
2023/04/21 09:53:27;;;;;;;;;;;;;;;21.21;35.67;99174.69;4973541;28;19914;-88
2023/04/21 09:55:55;;;;;;;;;;;;;;;21.24;37.62;99163.75;4974167;28;19921;-88
2023/04/21 09:58:23;;;;;;;;;;;;;;;21.31;35.98;99148.97;4973405;28;19914;-87
2023/04/21 10:00:49;;;;;;;;;;;;;;;21.24;35.22;99179.84;4973491;28;20412;-87
2023/04/21 10:03:16;;;;;;;;;;;;;;;21.34;34.84;99158.66;4973662;28;20017;-87
2023/04/21 10:05:42;;;;;;;;;;;;;;;21.32;36.09;99161.44;4973506;28;19945;-88
2023/04/21 10:08:10;;;;;;;;;;;;;;;21.18;35.31;99158.81;4973880;28;19952;-87
2023/04/21 10:10:35;;;;;;;;;;;;;;;21.40;39.14;99156.38;4975227;28;19914;-87
2023/04/21 10:13:01;;;;;;;;;;;;;;;21.55;37.71;99159.88;4985347;28;19991;-88
2023/04/21 10:15:30;;;;;;;;;;;;;;;21.91;36.32;99157.44;4992484;28;20366;-87
2023/04/21 10:18:15;;;;;;;;;;;;;;;21.51;35.48;99153.00;4988065;28;20296;-87
2023/04/21 10:20:53;;;;;;;;;;;;;;;21.25;34.68;99154.75;4992125;28;19917;-87
2023/04/21 10:23:28;;;;;;;;;;;;;;;21.62;41.42;99136.16;4992961;28;20025;-88
2023/04/21 10:26:00;;;;;;;;;;;;;;;22.22;40.69;99148.03;4992839;28;19913;-86
2023/04/21 10:28:37;;;;;;;;;;;;;;;22.41;37.54;99133.31;4993061;28;19910;-87
2023/04/21 10:31:16;;;;;;;;;;;;;;;22.28;37.96;99133.31;4992868;28;20008;-87
2023/04/21 10:33:41;;;;;;;;;;;;;;;22.07;36.35;99141.06;4976413;28;19961;-88
2023/04/21 10:36:10;;;;;;;;;;;;;;;21.71;34.88;99146.25;4973280;28;19914;-87
2023/04/21 10:38:40;;;;;;;;;;;;;;;21.56;34.32;99140.13;4971304;28;20323;-85
2023/04/21 10:41:24;;;;;;;;;;;;;;;21.46;34.45;99130.97;4973308;28;19996;-87
2023/04/21 10:43:50;;;;;;;;;;;;;;;21.60;35.74;99122.00;4972898;28;19960;-86
2023/04/21 10:46:31;;;;;;;;;;;;;;;21.64;34.16;99126.16;4973210;28;20351;-85
2023/04/21 10:49:03;;;;;;;;;;;;;;;21.56;32.87;99133.91;4972500;28;19918;-86
2023/04/21 10:51:30;;;;;;;;;;;;;;;21.90;33.15;99134.22;4972824;28;19920;-87
2023/04/21 10:53:56;;;;;;;;;;;;;;;21.72;32.17;99125.63;4972791;28;20377;-87
2023/04/21 10:56:21;;;;;;;;;;;;;;;21.93;34.69;99128.63;4973038;28;20028;-88
2023/04/21 10:58:48;;;;;;;;;;;;;;;22.35;35.76;99122.03;4972914;28;19972;-89
2023/04/21 11:01:14;;;;;;;;;;;;;;;22.55;32.50;99126.91;4972885;28;20012;-87
2023/04/21 11:03:39;;;;;;;;;;;;;;;22.27;31.51;99119.00;4972085;28;20348;-89
2023/04/21 11:06:14;;;;;;;;;;;;;;;22.62;32.78;99134.41;4972678;28;19914;-88
2023/04/21 11:08:55;;;;;;;;;;;;;;;22.46;33.63;99121.25;4972820;28;20012;-89
2023/04/21 11:11:21;;;;;;;;;;;;;;;22.77;32.21;99124.38;4972497;28;19973;-89
2023/04/21 11:13:47;;;;;;;;;;;;;;;22.88;30.10;99120.88;4971400;28;20248;-88
2023/04/21 11:16:12;;;;;;;;;;;;;;;22.64;32.43;99118.19;4972516;28;19918;-89
2023/04/21 11:18:42;;;;;;;;;;;;;;;21.96;35.83;99120.38;4971996;28;19917;-89
2023/04/21 11:21:08;;;;;;;;;;;;;;;21.68;36.54;99124.16;4972210;28;19917;-89
2023/04/21 11:23:34;;;;;;;;;;;;;;;21.45;37.01;99134.63;4972421;28;19914;-86
2023/04/21 11:26:00;;;;;;;;;;;;;;;21.32;36.80;99137.28;4972068;28;20304;-89
2023/04/21 11:28:26;;;;;;;;;;;;;;;21.10;38.29;99135.19;4970420;28;20334;-88
2023/04/21 11:30:51;;;;;;;;;;;;;;;21.06;37.42;99133.69;4972178;28;19914;-88
2023/04/21 11:33:16;;;;;;;;;;;;;;;21.32;38.50;99131.94;4971945;28;19914;-88
2023/04/21 11:35:42;;;;;;;;;;;;;;;21.58;37.43;99127.47;4971674;28;19969;-87
2023/04/21 11:38:07;;;;;;;;;;;;;;;21.71;37.33;99127.47;4972332;28;19914;-92
2023/04/21 11:40:48;;;;;;;;;;;;;;;22.23;37.00;99125.59;4954376;28;20407;-92
2023/04/21 11:43:14;;;;;;;;;;;;;;;22.74;35.78;99126.41;4972059;28;19950;-91
2023/04/21 11:45:40;;;;;;;;;;;;;;;22.57;34.75;99130.34;4954101;28;20027;-88
2023/04/21 11:48:14;;;;;;;;;;;;;;;22.34;33.34;99123.00;4972934;28;19936;-88
2023/04/21 11:50:39;;;;;;;;;;;;;;;22.37;32.28;99126.44;4991231;28;19914;-88
2023/04/21 11:53:05;;;;;;;;;;;;;;;23.06;32.77;99119.47;4982367;28;19978;-87
2023/04/21 11:55:30;;;;;;;;;;;;;;;23.20;33.09;99120.28;4971280;28;19914;-88
2023/04/21 11:57:56;;;;;;;;;;;;;;;23.40;33.12;99121.44;4971854;28;20030;-89
2023/04/21 12:00:22;;;;;;;;;;;;;;;23.22;31.95;99121.88;4971760;28;19921;-86
2023/04/21 12:02:54;;;;;;;;;;;;;;;23.03;32.08;99122.41;4989746;28;19919;-87
2023/04/21 12:05:21;;;;;;;;;;;;;;;22.73;33.69;99119.34;4990939;28;20372;-87
2023/04/21 12:07:51;;;;;;;;;;;;;;;22.97;33.85;99111.22;4990932;28;19921;-88
2023/04/21 12:10:20;;;;;;;;;;;;;;;22.66;31.61;99117.09;4986096;28;19940;-87
2023/04/21 12:12:45;;;;;;;;;;;;;;;22.52;33.75;99118.13;4984465;28;19929;-88
2023/04/21 12:15:15;;;;;;;;;;;;;;;22.86;33.20;99120.09;4963711;28;20016;-89
2023/04/21 12:17:44;;;;;;;;;;;;;;;22.52;33.33;99119.94;4970685;28;19925;-85
2023/04/21 12:20:09;;;;;;;;;;;;;;;22.03;33.29;99113.59;4971429;28;19913;-86
2023/04/21 12:22:35;;;;;;;;;;;;;;;21.89;34.73;99109.22;4970903;28;20860;-88
2023/04/21 12:25:00;;;;;;;;;;;;;;;22.22;33.23;99101.53;4971261;28;20008;-89
2023/04/21 12:27:26;;;;;;;;;;;;;;;22.56;33.31;99099.94;4970687;28;20315;-88
2023/04/21 12:29:52;;;;;;;;;;;;;;;22.94;33.92;99093.53;4971410;28;19937;-88
2023/04/21 12:32:17;;;;;;;;;;;;;;;23.40;33.06;99100.78;4970644;28;19914;-87
2023/04/21 12:34:43;;;;;;;;;;;;;;;23.13;32.03;99098.38;4973529;28;19918;-88
2023/04/21 12:37:08;;;;;;;;;;;;;;;23.02;32.88;99096.47;4990547;28;19913;-86
2023/04/21 12:39:34;;;;;;;;;;;;;;;22.59;34.48;99097.00;4990307;28;20004;-86
2023/04/21 12:42:00;;;;;;;;;;;;;;;23.26;33.71;99092.91;4990811;28;20012;-88
2023/04/21 12:44:25;;;;;;;;;;;;;;;23.46;33.75;99094.03;4990216;28;19960;-85